sensor_id;sensor_type;location;lat;lon;timestamp;temperature;humidity
28677;DHT22;15858;48.338;11.078;2022-08-21T00:02:00;16.80;99.90
28677;DHT22;15858;48.338;11.078;2022-08-21T00:04:27;16.80;99.90
28677;DHT22;15858;48.338;11.078;2022-08-21T00:06:56;16.70;99.90
28677;DHT22;15858;48.338;11.078;2022-08-21T00:09:22;16.70;99.90
28677;DHT22;15858;48.338;11.078;2022-08-21T00:11:49;16.80;99.90
28677;DHT22;15858;48.338;11.078;2022-08-21T00:14:16;16.70;99.90
28677;DHT22;15858;48.338;11.078;2022-08-21T00:16:43;16.70;99.90
28677;DHT22;15858;48.338;11.078;2022-08-21T00:19:10;16.70;99.90
28677;DHT22;15858;48.338;11.078;2022-08-21T00:21:36;16.70;99.90
28677;DHT22;15858;48.338;11.078;2022-08-21T00:24:03;16.70;99.90
28677;DHT22;15858;48.338;11.078;2022-08-21T00:26:30;16.70;99.90
28677;DHT22;15858;48.338;11.078;2022-08-21T00:28:57;16.70;99.90
28677;DHT22;15858;48.338;11.078;2022-08-21T00:31:24;16.70;99.90
28677;DHT22;15858;48.338;11.078;2022-08-21T00:33:51;16.60;99.90
28677;DHT22;15858;48.338;11.078;2022-08-21T00:36:26;16.70;99.90
28677;DHT22;15858;48.338;11.078;2022-08-21T00:38:52;16.60;99.90
28677;DHT22;15858;48.338;11.078;2022-08-21T00:41:19;16.60;99.90
28677;DHT22;15858;48.338;11.078;2022-08-21T00:44:09;16.60;99.90
28677;DHT22;15858;48.338;11.078;2022-08-21T00:46:37;16.60;99.90
28677;DHT22;15858;48.338;11.078;2022-08-21T00:49:05;16.50;99.90
28677;DHT22;15858;48.338;11.078;2022-08-21T00:51:50;16.50;99.90
28677;DHT22;15858;48.338;11.078;2022-08-21T00:54:19;16.50;99.90
28677;DHT22;15858;48.338;11.078;2022-08-21T00:56:52;16.50;99.90
28677;DHT22;15858;48.338;11.078;2022-08-21T00:59:21;16.50;99.90
28677;DHT22;15858;48.338;11.078;2022-08-21T01:01:50;16.50;99.90
28677;DHT22;15858;48.338;11.078;2022-08-21T01:04:17;16.50;99.90
28677;DHT22;15858;48.338;11.078;2022-08-21T01:06:44;16.40;99.90
28677;DHT22;15858;48.338;11.078;2022-08-21T01:09:11;16.40;99.90
28677;DHT22;15858;48.338;11.078;2022-08-21T01:11:39;16.40;99.90
28677;DHT22;15858;48.338;11.078;2022-08-21T01:14:05;16.30;99.90
28677;DHT22;15858;48.338;11.078;2022-08-21T01:16:32;16.30;99.90
28677;DHT22;15858;48.338;11.078;2022-08-21T01:18:59;16.30;99.90
28677;DHT22;15858;48.338;11.078;2022-08-21T01:21:26;16.30;99.90
28677;DHT22;15858;48.338;11.078;2022-08-21T01:23:55;16.20;99.90
28677;DHT22;15858;48.338;11.078;2022-08-21T01:26:28;16.20;99.90
28677;DHT22;15858;48.338;11.078;2022-08-21T01:31:34;16.20;99.90
28677;DHT22;15858;48.338;11.078;2022-08-21T01:34:01;16.20;99.90
28677;DHT22;15858;48.338;11.078;2022-08-21T01:36:27;16.20;99.90
28677;DHT22;15858;48.338;11.078;2022-08-21T01:38:54;16.20;99.90
28677;DHT22;15858;48.338;11.078;2022-08-21T01:41:21;16.30;99.90
28677;DHT22;15858;48.338;11.078;2022-08-21T01:43:48;16.20;99.90
28677;DHT22;15858;48.338;11.078;2022-08-21T01:46:15;16.20;99.90
28677;DHT22;15858;48.338;11.078;2022-08-21T01:48:43;16.20;99.90
28677;DHT22;15858;48.338;11.078;2022-08-21T01:51:10;16.20;99.90
28677;DHT22;15858;48.338;11.078;2022-08-21T01:53:37;16.20;99.90
28677;DHT22;15858;48.338;11.078;2022-08-21T01:56:08;16.20;99.90
28677;DHT22;15858;48.338;11.078;2022-08-21T01:58:41;16.20;99.90
28677;DHT22;15858;48.338;11.078;2022-08-21T02:01:08;16.20;99.90
28677;DHT22;15858;48.338;11.078;2022-08-21T02:03:36;16.20;99.90
28677;DHT22;15858;48.338;11.078;2022-08-21T02:06:06;16.10;99.90
28677;DHT22;15858;48.338;11.078;2022-08-21T02:08:34;16.10;99.90
28677;DHT22;15858;48.338;11.078;2022-08-21T02:11:00;16.10;99.90
28677;DHT22;15858;48.338;11.078;2022-08-21T02:13:27;16.00;99.90
28677;DHT22;15858;48.338;11.078;2022-08-21T02:15:54;15.90;99.90
28677;DHT22;15858;48.338;11.078;2022-08-21T02:18:20;15.90;99.90
28677;DHT22;15858;48.338;11.078;2022-08-21T02:20:48;15.80;99.90
28677;DHT22;15858;48.338;11.078;2022-08-21T02:23:22;15.80;99.90
28677;DHT22;15858;48.338;11.078;2022-08-21T02:25:54;15.80;99.90
28677;DHT22;15858;48.338;11.078;2022-08-21T02:28:21;15.80;99.90
28677;DHT22;15858;48.338;11.078;2022-08-21T02:30:48;15.80;99.90
28677;DHT22;15858;48.338;11.078;2022-08-21T02:33:15;15.80;99.90
28677;DHT22;15858;48.338;11.078;2022-08-21T02:35:43;15.80;99.90
28677;DHT22;15858;48.338;11.078;2022-08-21T02:38:14;15.80;99.90
28677;DHT22;15858;48.338;11.078;2022-08-21T02:40:43;15.80;99.90
28677;DHT22;15858;48.338;11.078;2022-08-21T02:43:17;15.70;99.90
28677;DHT22;15858;48.338;11.078;2022-08-21T02:45:45;15.80;99.90
28677;DHT22;15858;48.338;11.078;2022-08-21T02:48:15;15.70;99.90
28677;DHT22;15858;48.338;11.078;2022-08-21T02:50:46;15.70;99.90
28677;DHT22;15858;48.338;11.078;2022-08-21T02:53:14;15.70;99.90
28677;DHT22;15858;48.338;11.078;2022-08-21T02:55:40;15.60;99.90
28677;DHT22;15858;48.338;11.078;2022-08-21T02:58:07;15.60;99.90
28677;DHT22;15858;48.338;11.078;2022-08-21T03:00:36;15.60;99.90
28677;DHT22;15858;48.338;11.078;2022-08-21T03:03:03;15.60;99.90
28677;DHT22;15858;48.338;11.078;2022-08-21T03:05:31;15.60;99.90
28677;DHT22;15858;48.338;11.078;2022-08-21T03:08:01;15.60;99.90
28677;DHT22;15858;48.338;11.078;2022-08-21T03:10:28;15.60;99.90
28677;DHT22;15858;48.338;11.078;2022-08-21T03:12:55;15.50;99.90
28677;DHT22;15858;48.338;11.078;2022-08-21T03:15:23;15.50;99.90
28677;DHT22;15858;48.338;11.078;2022-08-21T03:17:50;15.50;99.90
28677;DHT22;15858;48.338;11.078;2022-08-21T03:20:19;15.50;99.90
28677;DHT22;15858;48.338;11.078;2022-08-21T03:22:46;15.50;99.90
28677;DHT22;15858;48.338;11.078;2022-08-21T03:25:19;15.40;99.90
28677;DHT22;15858;48.338;11.078;2022-08-21T03:27:55;15.40;99.90
28677;DHT22;15858;48.338;11.078;2022-08-21T03:30:25;15.40;99.90
28677;DHT22;15858;48.338;11.078;2022-08-21T03:32:52;15.40;99.90
28677;DHT22;15858;48.338;11.078;2022-08-21T03:35:21;15.40;99.90
28677;DHT22;15858;48.338;11.078;2022-08-21T03:37:47;15.40;99.90
28677;DHT22;15858;48.338;11.078;2022-08-21T03:40:16;15.40;99.90
28677;DHT22;15858;48.338;11.078;2022-08-21T03:42:43;15.40;99.90
28677;DHT22;15858;48.338;11.078;2022-08-21T03:45:10;15.40;99.90
28677;DHT22;15858;48.338;11.078;2022-08-21T03:47:37;15.40;99.90
28677;DHT22;15858;48.338;11.078;2022-08-21T03:50:04;15.40;99.90
28677;DHT22;15858;48.338;11.078;2022-08-21T03:52:31;15.30;99.90
28677;DHT22;15858;48.338;11.078;2022-08-21T03:54:58;15.30;99.90
28677;DHT22;15858;48.338;11.078;2022-08-21T03:57:25;15.30;99.90
28677;DHT22;15858;48.338;11.078;2022-08-21T03:59:51;15.30;99.90
28677;DHT22;15858;48.338;11.078;2022-08-21T04:02:20;15.30;99.90
28677;DHT22;15858;48.338;11.078;2022-08-21T04:04:47;15.30;99.90
28677;DHT22;15858;48.338;11.078;2022-08-21T04:07:13;15.30;99.90
28677;DHT22;15858;48.338;11.078;2022-08-21T04:09:40;15.30;99.90
28677;DHT22;15858;48.338;11.078;2022-08-21T04:12:07;15.30;99.90
28677;DHT22;15858;48.338;11.078;2022-08-21T04:14:34;15.30;99.90
28677;DHT22;15858;48.338;11.078;2022-08-21T04:17:00;15.30;99.90
28677;DHT22;15858;48.338;11.078;2022-08-21T04:19:27;15.30;99.90
28677;DHT22;15858;48.338;11.078;2022-08-21T04:21:55;15.30;99.90
28677;DHT22;15858;48.338;11.078;2022-08-21T04:24:22;15.30;99.90
28677;DHT22;15858;48.338;11.078;2022-08-21T04:26:48;15.30;99.90
28677;DHT22;15858;48.338;11.078;2022-08-21T04:29:15;15.30;99.90
28677;DHT22;15858;48.338;11.078;2022-08-21T04:31:41;15.30;99.90
28677;DHT22;15858;48.338;11.078;2022-08-21T04:34:08;15.20;99.90
28677;DHT22;15858;48.338;11.078;2022-08-21T04:36:35;15.20;99.90
28677;DHT22;15858;48.338;11.078;2022-08-21T04:39:02;15.20;99.90
28677;DHT22;15858;48.338;11.078;2022-08-21T04:41:29;15.10;99.90
28677;DHT22;15858;48.338;11.078;2022-08-21T04:43:56;15.10;99.90
28677;DHT22;15858;48.338;11.078;2022-08-21T04:46:22;15.00;99.90
28677;DHT22;15858;48.338;11.078;2022-08-21T04:48:49;15.00;99.90
28677;DHT22;15858;48.338;11.078;2022-08-21T04:51:21;15.00;99.90
28677;DHT22;15858;48.338;11.078;2022-08-21T04:56:47;15.00;99.90
28677;DHT22;15858;48.338;11.078;2022-08-21T04:59:18;15.10;99.90
28677;DHT22;15858;48.338;11.078;2022-08-21T05:01:48;15.00;99.90
28677;DHT22;15858;48.338;11.078;2022-08-21T05:04:18;15.10;99.90
28677;DHT22;15858;48.338;11.078;2022-08-21T05:06:47;15.10;99.90
28677;DHT22;15858;48.338;11.078;2022-08-21T05:09:16;15.10;99.90
28677;DHT22;15858;48.338;11.078;2022-08-21T05:11:45;15.10;99.90
28677;DHT22;15858;48.338;11.078;2022-08-21T05:14:12;15.20;99.90
28677;DHT22;15858;48.338;11.078;2022-08-21T05:16:39;15.20;99.90
28677;DHT22;15858;48.338;11.078;2022-08-21T05:19:06;15.30;99.90
28677;DHT22;15858;48.338;11.078;2022-08-21T05:21:34;15.30;99.90
28677;DHT22;15858;48.338;11.078;2022-08-21T05:24:01;15.30;99.90
28677;DHT22;15858;48.338;11.078;2022-08-21T05:26:28;15.40;99.90
28677;DHT22;15858;48.338;11.078;2022-08-21T05:28:55;15.40;99.90
28677;DHT22;15858;48.338;11.078;2022-08-21T05:31:23;15.40;99.90
28677;DHT22;15858;48.338;11.078;2022-08-21T05:33:50;15.50;99.90
28677;DHT22;15858;48.338;11.078;2022-08-21T05:36:18;15.60;99.90
28677;DHT22;15858;48.338;11.078;2022-08-21T05:38:45;15.70;99.90
28677;DHT22;15858;48.338;11.078;2022-08-21T05:41:12;15.70;99.90
28677;DHT22;15858;48.338;11.078;2022-08-21T05:43:39;15.80;99.90
28677;DHT22;15858;48.338;11.078;2022-08-21T05:46:06;15.90;99.90
28677;DHT22;15858;48.338;11.078;2022-08-21T05:48:34;16.00;99.90
28677;DHT22;15858;48.338;11.078;2022-08-21T05:51:06;16.10;99.90
28677;DHT22;15858;48.338;11.078;2022-08-21T05:53:33;16.20;99.90
28677;DHT22;15858;48.338;11.078;2022-08-21T05:56:01;16.30;99.90
28677;DHT22;15858;48.338;11.078;2022-08-21T05:58:27;16.30;99.90
28677;DHT22;15858;48.338;11.078;2022-08-21T06:00:54;16.40;99.90
28677;DHT22;15858;48.338;11.078;2022-08-21T06:03:24;16.50;99.90
28677;DHT22;15858;48.338;11.078;2022-08-21T06:05:52;16.60;99.90
28677;DHT22;15858;48.338;11.078;2022-08-21T06:08:20;16.70;99.90
28677;DHT22;15858;48.338;11.078;2022-08-21T06:10:48;16.80;99.90
28677;DHT22;15858;48.338;11.078;2022-08-21T06:13:17;16.90;99.90
28677;DHT22;15858;48.338;11.078;2022-08-21T06:15:44;17.00;99.90
28677;DHT22;15858;48.338;11.078;2022-08-21T06:18:11;17.20;99.90
28677;DHT22;15858;48.338;11.078;2022-08-21T06:20:39;17.20;99.90
28677;DHT22;15858;48.338;11.078;2022-08-21T06:23:05;17.30;99.90
28677;DHT22;15858;48.338;11.078;2022-08-21T06:25:32;17.40;99.90
28677;DHT22;15858;48.338;11.078;2022-08-21T06:28:08;17.40;99.90
28677;DHT22;15858;48.338;11.078;2022-08-21T06:30:36;17.50;99.90
28677;DHT22;15858;48.338;11.078;2022-08-21T06:33:03;17.40;99.90
28677;DHT22;15858;48.338;11.078;2022-08-21T06:35:30;17.50;99.90
28677;DHT22;15858;48.338;11.078;2022-08-21T06:37:57;17.50;99.90
28677;DHT22;15858;48.338;11.078;2022-08-21T06:40:25;17.60;99.90
28677;DHT22;15858;48.338;11.078;2022-08-21T06:42:56;17.60;99.90
28677;DHT22;15858;48.338;11.078;2022-08-21T06:45:24;17.80;99.90
28677;DHT22;15858;48.338;11.078;2022-08-21T06:47:53;17.90;99.90
28677;DHT22;15858;48.338;11.078;2022-08-21T06:50:20;18.10;99.90
28677;DHT22;15858;48.338;11.078;2022-08-21T06:52:47;18.10;99.90
28677;DHT22;15858;48.338;11.078;2022-08-21T06:55:13;18.20;99.90
28677;DHT22;15858;48.338;11.078;2022-08-21T06:57:47;18.30;99.90
28677;DHT22;15858;48.338;11.078;2022-08-21T07:00:18;18.50;99.90
28677;DHT22;15858;48.338;11.078;2022-08-21T07:02:45;18.40;99.90
28677;DHT22;15858;48.338;11.078;2022-08-21T07:05:12;18.40;99.90
28677;DHT22;15858;48.338;11.078;2022-08-21T07:07:43;18.40;99.90
28677;DHT22;15858;48.338;11.078;2022-08-21T07:10:10;18.50;99.90
28677;DHT22;15858;48.338;11.078;2022-08-21T07:12:48;18.70;99.90
28677;DHT22;15858;48.338;11.078;2022-08-21T07:15:17;18.80;99.90
28677;DHT22;15858;48.338;11.078;2022-08-21T07:17:43;18.70;99.90
28677;DHT22;15858;48.338;11.078;2022-08-21T07:20:10;18.90;99.90
28677;DHT22;15858;48.338;11.078;2022-08-21T07:22:39;18.90;99.90
28677;DHT22;15858;48.338;11.078;2022-08-21T07:25:07;19.00;99.90
28677;DHT22;15858;48.338;11.078;2022-08-21T07:27:34;19.10;99.90
28677;DHT22;15858;48.338;11.078;2022-08-21T07:30:00;19.10;99.90
28677;DHT22;15858;48.338;11.078;2022-08-21T07:32:27;19.10;99.90
28677;DHT22;15858;48.338;11.078;2022-08-21T07:34:54;19.20;99.90
28677;DHT22;15858;48.338;11.078;2022-08-21T07:37:20;19.30;99.90
28677;DHT22;15858;48.338;11.078;2022-08-21T07:39:47;19.30;99.90
28677;DHT22;15858;48.338;11.078;2022-08-21T07:42:14;19.20;99.90
28677;DHT22;15858;48.338;11.078;2022-08-21T07:44:41;19.30;99.90
28677;DHT22;15858;48.338;11.078;2022-08-21T07:47:07;19.40;99.90
28677;DHT22;15858;48.338;11.078;2022-08-21T07:49:34;19.60;99.90
28677;DHT22;15858;48.338;11.078;2022-08-21T07:52:01;19.80;99.90
28677;DHT22;15858;48.338;11.078;2022-08-21T07:54:28;20.00;99.90
28677;DHT22;15858;48.338;11.078;2022-08-21T07:56:59;20.00;99.90
28677;DHT22;15858;48.338;11.078;2022-08-21T07:59:26;20.10;99.90
28677;DHT22;15858;48.338;11.078;2022-08-21T08:01:52;20.40;99.90
28677;DHT22;15858;48.338;11.078;2022-08-21T08:04:19;20.60;99.90
28677;DHT22;15858;48.338;11.078;2022-08-21T08:06:51;20.50;99.90
28677;DHT22;15858;48.338;11.078;2022-08-21T08:09:18;20.60;99.90
28677;DHT22;15858;48.338;11.078;2022-08-21T08:11:45;20.70;99.90
28677;DHT22;15858;48.338;11.078;2022-08-21T08:14:11;20.70;99.90
28677;DHT22;15858;48.338;11.078;2022-08-21T08:16:38;20.80;99.90
28677;DHT22;15858;48.338;11.078;2022-08-21T08:19:05;20.90;99.90
28677;DHT22;15858;48.338;11.078;2022-08-21T08:21:31;21.00;99.90
28677;DHT22;15858;48.338;11.078;2022-08-21T08:24:00;21.00;99.90
28677;DHT22;15858;48.338;11.078;2022-08-21T08:26:45;20.90;99.90
28677;DHT22;15858;48.338;11.078;2022-08-21T08:29:19;20.70;99.90
28677;DHT22;15858;48.338;11.078;2022-08-21T08:31:46;20.80;99.90
28677;DHT22;15858;48.338;11.078;2022-08-21T08:34:12;21.00;99.90
28677;DHT22;15858;48.338;11.078;2022-08-21T08:36:51;21.30;99.90
28677;DHT22;15858;48.338;11.078;2022-08-21T08:39:18;21.30;99.90
28677;DHT22;15858;48.338;11.078;2022-08-21T08:42:13;21.40;99.90
28677;DHT22;15858;48.338;11.078;2022-08-21T08:45:07;21.50;99.90
28677;DHT22;15858;48.338;11.078;2022-08-21T08:47:40;21.70;99.90
28677;DHT22;15858;48.338;11.078;2022-08-21T08:50:41;21.70;99.90
28677;DHT22;15858;48.338;11.078;2022-08-21T08:53:22;21.80;99.90
28677;DHT22;15858;48.338;11.078;2022-08-21T08:55:52;21.80;99.90
28677;DHT22;15858;48.338;11.078;2022-08-21T08:58:24;21.90;99.90
28677;DHT22;15858;48.338;11.078;2022-08-21T09:00:54;21.90;99.90
28677;DHT22;15858;48.338;11.078;2022-08-21T09:03:23;22.00;99.90
28677;DHT22;15858;48.338;11.078;2022-08-21T09:08:50;22.40;99.90
28677;DHT22;15858;48.338;11.078;2022-08-21T09:14:21;22.40;99.90
28677;DHT22;15858;48.338;11.078;2022-08-21T09:17:11;22.50;99.90
28677;DHT22;15858;48.338;11.078;2022-08-21T09:22:49;22.70;99.90
28677;DHT22;15858;48.338;11.078;2022-08-21T09:25:26;22.70;99.90
28677;DHT22;15858;48.338;11.078;2022-08-21T09:27:54;22.70;99.90
28677;DHT22;15858;48.338;11.078;2022-08-21T09:30:27;22.80;99.90
28677;DHT22;15858;48.338;11.078;2022-08-21T09:32:54;22.90;99.90
28677;DHT22;15858;48.338;11.078;2022-08-21T09:35:22;22.60;99.90
28677;DHT22;15858;48.338;11.078;2022-08-21T09:37:53;22.60;99.90
28677;DHT22;15858;48.338;11.078;2022-08-21T09:43:17;23.20;99.90
28677;DHT22;15858;48.338;11.078;2022-08-21T09:45:46;23.20;99.90
28677;DHT22;15858;48.338;11.078;2022-08-21T09:48:24;23.20;99.90
28677;DHT22;15858;48.338;11.078;2022-08-21T09:50:53;23.20;99.90
28677;DHT22;15858;48.338;11.078;2022-08-21T09:53:26;23.30;99.90
28677;DHT22;15858;48.338;11.078;2022-08-21T09:56:04;23.50;99.90
28677;DHT22;15858;48.338;11.078;2022-08-21T09:58:33;23.40;99.90
28677;DHT22;15858;48.338;11.078;2022-08-21T10:01:03;23.80;99.90
28677;DHT22;15858;48.338;11.078;2022-08-21T10:03:30;23.90;99.90
28677;DHT22;15858;48.338;11.078;2022-08-21T10:06:03;24.10;99.90
28677;DHT22;15858;48.338;11.078;2022-08-21T10:08:36;24.10;99.90
28677;DHT22;15858;48.338;11.078;2022-08-21T10:11:09;24.00;99.90
28677;DHT22;15858;48.338;11.078;2022-08-21T10:14:00;24.10;99.90
28677;DHT22;15858;48.338;11.078;2022-08-21T10:19:41;24.20;99.90
28677;DHT22;15858;48.338;11.078;2022-08-21T10:28:07;24.30;99.90
28677;DHT22;15858;48.338;11.078;2022-08-21T10:31:00;24.50;99.90
28677;DHT22;15858;48.338;11.078;2022-08-21T10:33:46;24.70;99.90
28677;DHT22;15858;48.338;11.078;2022-08-21T10:36:46;24.70;99.90
28677;DHT22;15858;48.338;11.078;2022-08-21T10:39:35;24.70;99.90
28677;DHT22;15858;48.338;11.078;2022-08-21T10:42:23;24.80;99.90
28677;DHT22;15858;48.338;11.078;2022-08-21T10:50:44;25.00;99.90
28677;DHT22;15858;48.338;11.078;2022-08-21T10:53:28;25.40;99.90
28677;DHT22;15858;48.338;11.078;2022-08-21T10:56:18;25.40;99.90
28677;DHT22;15858;48.338;11.078;2022-08-21T10:58:51;25.40;99.90
28677;DHT22;15858;48.338;11.078;2022-08-21T11:01:31;25.50;99.90
28677;DHT22;15858;48.338;11.078;2022-08-21T11:05:07;25.00;99.90
28677;DHT22;15858;48.338;11.078;2022-08-21T11:07:30;25.30;99.90
28677;DHT22;15858;48.338;11.078;2022-08-21T11:10:10;25.60;99.90
28677;DHT22;15858;48.338;11.078;2022-08-21T11:12:46;25.90;99.90
28677;DHT22;15858;48.338;11.078;2022-08-21T11:18:26;26.00;99.90
28677;DHT22;15858;48.338;11.078;2022-08-21T11:24:00;26.30;99.90
28677;DHT22;15858;48.338;11.078;2022-08-21T11:29:14;26.10;99.90
28677;DHT22;15858;48.338;11.078;2022-08-21T11:31:57;25.70;99.90
28677;DHT22;15858;48.338;11.078;2022-08-21T11:37:37;25.40;99.90
28677;DHT22;15858;48.338;11.078;2022-08-21T11:40:47;25.50;99.90
28677;DHT22;15858;48.338;11.078;2022-08-21T11:43:43;25.70;99.10
28677;DHT22;15858;48.338;11.078;2022-08-21T11:46:41;25.80;98.50
28677;DHT22;15858;48.338;11.078;2022-08-21T11:52:16;26.20;98.60
28677;DHT22;15858;48.338;11.078;2022-08-21T11:55:48;26.20;96.30
28677;DHT22;15858;48.338;11.078;2022-08-21T11:57:59;26.40;96.90
28677;DHT22;15858;48.338;11.078;2022-08-21T12:00:30;26.40;95.90
28677;DHT22;15858;48.338;11.078;2022-08-21T12:03:25;26.50;94.20
28677;DHT22;15858;48.338;11.078;2022-08-21T12:05:58;26.80;94.90
28677;DHT22;15858;48.338;11.078;2022-08-21T12:08:33;26.60;91.90
28677;DHT22;15858;48.338;11.078;2022-08-21T12:19:14;26.30;91.10
28677;DHT22;15858;48.338;11.078;2022-08-21T12:24:44;26.80;89.00
28677;DHT22;15858;48.338;11.078;2022-08-21T12:27:19;26.70;90.00
28677;DHT22;15858;48.338;11.078;2022-08-21T12:29:54;26.80;88.50
28677;DHT22;15858;48.338;11.078;2022-08-21T12:34:55;26.60;88.30
28677;DHT22;15858;48.338;11.078;2022-08-21T12:37:41;26.80;88.10
28677;DHT22;15858;48.338;11.078;2022-08-21T12:40:31;27.00;90.00
28677;DHT22;15858;48.338;11.078;2022-08-21T12:43:04;26.90;86.50
28677;DHT22;15858;48.338;11.078;2022-08-21T12:45:37;27.10;88.40
28677;DHT22;15858;48.338;11.078;2022-08-21T12:48:17;27.40;83.20
28677;DHT22;15858;48.338;11.078;2022-08-21T12:50:52;27.40;83.60
28677;DHT22;15858;48.338;11.078;2022-08-21T12:53:56;27.30;82.00
28677;DHT22;15858;48.338;11.078;2022-08-21T12:56:20;27.40;82.00
28677;DHT22;15858;48.338;11.078;2022-08-21T12:58:50;27.60;82.00
28677;DHT22;15858;48.338;11.078;2022-08-21T13:01:33;27.60;80.10
28677;DHT22;15858;48.338;11.078;2022-08-21T13:04:10;27.60;82.70
28677;DHT22;15858;48.338;11.078;2022-08-21T13:06:40;27.70;79.30
28677;DHT22;15858;48.338;11.078;2022-08-21T13:09:11;27.40;77.20
28677;DHT22;15858;48.338;11.078;2022-08-21T13:11:39;27.50;78.20
28677;DHT22;15858;48.338;11.078;2022-08-21T13:14:24;27.50;76.00
28677;DHT22;15858;48.338;11.078;2022-08-21T13:16:57;27.40;76.10
28677;DHT22;15858;48.338;11.078;2022-08-21T13:19:25;27.50;75.70
28677;DHT22;15858;48.338;11.078;2022-08-21T13:21:53;27.60;75.60
28677;DHT22;15858;48.338;11.078;2022-08-21T13:24:28;27.60;76.30
28677;DHT22;15858;48.338;11.078;2022-08-21T13:27:38;27.50;73.90
28677;DHT22;15858;48.338;11.078;2022-08-21T13:32:37;27.20;75.30
28677;DHT22;15858;48.338;11.078;2022-08-21T13:35:11;27.50;73.30
28677;DHT22;15858;48.338;11.078;2022-08-21T13:37:40;27.60;76.10
28677;DHT22;15858;48.338;11.078;2022-08-21T13:40:10;27.60;75.70
28677;DHT22;15858;48.338;11.078;2022-08-21T13:42:41;27.50;71.40
28677;DHT22;15858;48.338;11.078;2022-08-21T13:45:17;27.50;75.70
28677;DHT22;15858;48.338;11.078;2022-08-21T13:47:46;27.50;74.70
28677;DHT22;15858;48.338;11.078;2022-08-21T13:50:15;27.50;74.30
28677;DHT22;15858;48.338;11.078;2022-08-21T13:52:54;27.40;75.10
28677;DHT22;15858;48.338;11.078;2022-08-21T13:55:22;27.30;73.50
28677;DHT22;15858;48.338;11.078;2022-08-21T13:57:59;27.10;72.70
28677;DHT22;15858;48.338;11.078;2022-08-21T14:00:28;27.00;73.20
28677;DHT22;15858;48.338;11.078;2022-08-21T14:03:06;27.20;72.70
28677;DHT22;15858;48.338;11.078;2022-08-21T14:05:37;27.30;72.80
28677;DHT22;15858;48.338;11.078;2022-08-21T14:08:12;27.40;76.60
28677;DHT22;15858;48.338;11.078;2022-08-21T14:10:47;27.30;74.60
28677;DHT22;15858;48.338;11.078;2022-08-21T14:16:00;27.00;76.00
28677;DHT22;15858;48.338;11.078;2022-08-21T14:18:27;26.70;72.90
28677;DHT22;15858;48.338;11.078;2022-08-21T14:21:06;26.80;76.20
28677;DHT22;15858;48.338;11.078;2022-08-21T14:23:33;26.80;74.20
28677;DHT22;15858;48.338;11.078;2022-08-21T14:26:03;26.90;75.80
28677;DHT22;15858;48.338;11.078;2022-08-21T14:28:41;26.80;75.50
28677;DHT22;15858;48.338;11.078;2022-08-21T14:31:18;26.90;74.40
28677;DHT22;15858;48.338;11.078;2022-08-21T14:33:45;26.90;74.60
28677;DHT22;15858;48.338;11.078;2022-08-21T14:36:12;26.70;74.10
28677;DHT22;15858;48.338;11.078;2022-08-21T14:38:40;26.50;73.10
28677;DHT22;15858;48.338;11.078;2022-08-21T14:41:16;26.70;77.00
28677;DHT22;15858;48.338;11.078;2022-08-21T14:43:45;26.70;74.70
28677;DHT22;15858;48.338;11.078;2022-08-21T14:46:18;26.70;76.40
28677;DHT22;15858;48.338;11.078;2022-08-21T14:48:46;26.70;75.30
28677;DHT22;15858;48.338;11.078;2022-08-21T14:51:13;26.60;75.30
28677;DHT22;15858;48.338;11.078;2022-08-21T14:53:40;26.40;74.50
28677;DHT22;15858;48.338;11.078;2022-08-21T14:56:07;26.30;76.00
28677;DHT22;15858;48.338;11.078;2022-08-21T14:58:37;26.10;73.80
28677;DHT22;15858;48.338;11.078;2022-08-21T15:01:06;26.00;77.50
28677;DHT22;15858;48.338;11.078;2022-08-21T15:03:34;26.00;74.90
28677;DHT22;15858;48.338;11.078;2022-08-21T15:06:02;26.00;74.10
28677;DHT22;15858;48.338;11.078;2022-08-21T15:08:29;25.90;73.00
28677;DHT22;15858;48.338;11.078;2022-08-21T15:10:56;25.70;72.80
28677;DHT22;15858;48.338;11.078;2022-08-21T15:13:37;25.70;76.00
28677;DHT22;15858;48.338;11.078;2022-08-21T15:16:04;25.60;77.30
28677;DHT22;15858;48.338;11.078;2022-08-21T15:18:31;25.70;75.60
28677;DHT22;15858;48.338;11.078;2022-08-21T15:20:57;25.60;74.70
28677;DHT22;15858;48.338;11.078;2022-08-21T15:23:24;25.60;76.40
28677;DHT22;15858;48.338;11.078;2022-08-21T15:25:52;25.70;77.60
28677;DHT22;15858;48.338;11.078;2022-08-21T15:28:19;25.70;78.30
28677;DHT22;15858;48.338;11.078;2022-08-21T15:30:46;25.70;78.60
28677;DHT22;15858;48.338;11.078;2022-08-21T15:33:12;25.60;79.10
28677;DHT22;15858;48.338;11.078;2022-08-21T15:35:39;25.50;80.00
28677;DHT22;15858;48.338;11.078;2022-08-21T15:38:07;25.70;81.20
28677;DHT22;15858;48.338;11.078;2022-08-21T15:40:38;25.70;81.50
28677;DHT22;15858;48.338;11.078;2022-08-21T15:43:29;25.60;80.00
28677;DHT22;15858;48.338;11.078;2022-08-21T15:45:58;25.70;81.60
28677;DHT22;15858;48.338;11.078;2022-08-21T15:48:25;25.70;80.40
28677;DHT22;15858;48.338;11.078;2022-08-21T15:50:52;25.80;79.70
28677;DHT22;15858;48.338;11.078;2022-08-21T15:53:19;25.80;79.60
28677;DHT22;15858;48.338;11.078;2022-08-21T15:55:46;25.80;80.00
28677;DHT22;15858;48.338;11.078;2022-08-21T15:58:14;25.70;79.70
28677;DHT22;15858;48.338;11.078;2022-08-21T16:00:42;25.80;80.70
28677;DHT22;15858;48.338;11.078;2022-08-21T16:03:12;25.90;80.90
28677;DHT22;15858;48.338;11.078;2022-08-21T16:05:40;25.90;80.40
28677;DHT22;15858;48.338;11.078;2022-08-21T16:08:06;25.80;79.40
28677;DHT22;15858;48.338;11.078;2022-08-21T16:10:34;26.00;81.40
28677;DHT22;15858;48.338;11.078;2022-08-21T16:13:04;26.20;80.80
28677;DHT22;15858;48.338;11.078;2022-08-21T16:15:30;26.30;79.70
28677;DHT22;15858;48.338;11.078;2022-08-21T16:17:57;26.20;78.50
28677;DHT22;15858;48.338;11.078;2022-08-21T16:20:27;26.20;79.00
28677;DHT22;15858;48.338;11.078;2022-08-21T16:22:55;26.40;77.50
28677;DHT22;15858;48.338;11.078;2022-08-21T16:25:23;26.40;77.30
28677;DHT22;15858;48.338;11.078;2022-08-21T16:27:53;26.40;78.00
28677;DHT22;15858;48.338;11.078;2022-08-21T16:30:25;26.20;78.70
28677;DHT22;15858;48.338;11.078;2022-08-21T16:32:52;26.20;76.90
28677;DHT22;15858;48.338;11.078;2022-08-21T16:35:20;25.90;78.70
28677;DHT22;15858;48.338;11.078;2022-08-21T16:37:47;25.70;79.90
28677;DHT22;15858;48.338;11.078;2022-08-21T16:40:19;25.50;80.10
28677;DHT22;15858;48.338;11.078;2022-08-21T16:42:46;25.40;79.80
28677;DHT22;15858;48.338;11.078;2022-08-21T16:45:17;25.40;80.00